Time;durP1;ratioP1;P1;durP2;ratioP2;P2;SDS_P1;SDS_P2;PMS_P1;PMS_P2;Temp;Humidity;BMP_temperature;BMP_pressure;BME280_temperature;BME280_humidity;BME280_pressure;Samples;Min_cycle;Max_cycle;Signal;HPM_P1;HPM_P2
2022/07/26 00:00:16;;;;;;;11.23;9.85;;;;;;;;;;5081837;28;20029;-78
2022/07/26 00:02:42;;;;;;;14.07;10.25;;;;;;;;;;5093620;28;20043;-78
2022/07/26 00:05:08;;;;;;;13.85;9.93;;;;;;;;;;5099381;28;20020;-77
2022/07/26 00:07:34;;;;;;;13.65;9.93;;;;;;;;;;5100370;28;20023;-77
2022/07/26 00:10:00;;;;;;;13.63;10.48;;;;;;;;;;5099408;28;20028;-77
2022/07/26 00:12:26;;;;;;;13.23;10.02;;;;;;;;;;5080658;28;20024;-78
2022/07/26 00:14:55;;;;;;;12.43;9.57;;;;;;;;;;5098630;28;20333;-78
2022/07/26 00:17:23;;;;;;;14.45;9.52;;;;;;;;;;5096047;28;20024;-78
2022/07/26 00:19:49;;;;;;;12.18;9.98;;;;;;;;;;5080073;28;20034;-78
2022/07/26 00:22:33;;;;;;;11.38;10.02;;;;;;;;;;5080165;28;20057;-78
2022/07/26 00:24:59;;;;;;;12.13;9.75;;;;;;;;;;5080100;28;20414;-78
2022/07/26 00:27:25;;;;;;;13.95;9.82;;;;;;;;;;5096063;28;20052;-78
2022/07/26 00:29:51;;;;;;;11.68;10.48;;;;;;;;;;5100367;28;20398;-78
2022/07/26 00:32:17;;;;;;;10.60;9.50;;;;;;;;;;5095927;28;20066;-78
2022/07/26 00:34:43;;;;;;;10.93;9.82;;;;;;;;;;5081035;28;20024;-77
2022/07/26 00:37:09;;;;;;;12.00;9.63;;;;;;;;;;5079830;28;20428;-77
2022/07/26 00:39:35;;;;;;;13.52;10.10;;;;;;;;;;5079672;28;20082;-77
2022/07/26 00:42:01;;;;;;;12.45;10.50;;;;;;;;;;5079982;28;20067;-77
2022/07/26 00:44:40;;;;;;;11.07;9.80;;;;;;;;;;5083452;28;20020;-77
2022/07/26 00:47:06;;;;;;;14.75;9.77;;;;;;;;;;5090783;28;20059;-78
2022/07/26 00:49:32;;;;;;;12.05;9.63;;;;;;;;;;5082871;28;21445;-77
2022/07/26 00:51:58;;;;;;;13.32;9.82;;;;;;;;;;5098345;28;20065;-78
2022/07/26 00:54:24;;;;;;;11.27;9.90;;;;;;;;;;5081459;28;20033;-77
2022/07/26 00:56:50;;;;;;;12.98;9.68;;;;;;;;;;5085544;28;20118;-78
2022/07/26 00:59:16;;;;;;;11.95;10.38;;;;;;;;;;5099924;28;20034;-77
2022/07/26 01:01:42;;;;;;;10.95;9.85;;;;;;;;;;5098439;28;20036;-78
2022/07/26 01:04:08;;;;;;;14.60;10.70;;;;;;;;;;5099491;28;20020;-78
2022/07/26 01:06:35;;;;;;;10.82;9.73;;;;;;;;;;5099414;28;20016;-78
2022/07/26 01:09:02;;;;;;;10.52;9.57;;;;;;;;;;5099707;28;20055;-77
2022/07/26 01:11:28;;;;;;;11.57;10.25;;;;;;;;;;5098926;28;20039;-77
2022/07/26 01:13:54;;;;;;;12.25;9.45;;;;;;;;;;5083756;28;20025;-78
2022/07/26 01:16:20;;;;;;;12.23;9.68;;;;;;;;;;5097905;28;20046;-77
2022/07/26 01:18:46;;;;;;;11.98;9.43;;;;;;;;;;5097483;28;20089;-78
2022/07/26 01:21:12;;;;;;;10.90;9.50;;;;;;;;;;5087265;28;20406;-77
2022/07/26 01:23:38;;;;;;;10.35;9.07;;;;;;;;;;5079002;28;20031;-78
2022/07/26 01:26:05;;;;;;;12.38;9.90;;;;;;;;;;5090824;28;20028;-78
2022/07/26 01:28:35;;;;;;;12.48;9.40;;;;;;;;;;5099442;28;20089;-78
2022/07/26 01:31:01;;;;;;;12.48;9.63;;;;;;;;;;5097395;28;20035;-78
2022/07/26 01:33:27;;;;;;;12.35;9.90;;;;;;;;;;5085503;28;20028;-78
2022/07/26 01:35:54;;;;;;;12.18;9.73;;;;;;;;;;5078745;28;20039;-78
2022/07/26 01:38:20;;;;;;;15.15;11.48;;;;;;;;;;5093217;28;20326;-77
2022/07/26 01:40:46;;;;;;;13.85;11.55;;;;;;;;;;5098747;28;20055;-78
2022/07/26 01:43:12;;;;;;;11.45;10.25;;;;;;;;;;5097945;28;20036;-77
2022/07/26 01:45:38;;;;;;;14.02;10.82;;;;;;;;;;5097453;28;20025;-77
2022/07/26 01:48:04;;;;;;;12.98;10.80;;;;;;;;;;5086431;28;20146;-78
2022/07/26 01:50:30;;;;;;;14.20;10.32;;;;;;;;;;5092581;28;20099;-78
2022/07/26 01:52:56;;;;;;;11.90;9.93;;;;;;;;;;5088643;28;20044;-77
2022/07/26 01:55:22;;;;;;;12.90;9.13;;;;;;;;;;5089028;28;20047;-78
2022/07/26 01:57:48;;;;;;;13.85;9.68;;;;;;;;;;5078532;28;20027;-78
2022/07/26 02:00:14;;;;;;;12.93;9.88;;;;;;;;;;5078444;28;20054;-78
2022/07/26 02:02:40;;;;;;;12.07;9.75;;;;;;;;;;5078554;28;20032;-78
2022/07/26 02:05:07;;;;;;;12.90;9.00;;;;;;;;;;5093459;28;20024;-78
2022/07/26 02:07:39;;;;;;;11.38;8.73;;;;;;;;;;5098207;28;20055;-77
2022/07/26 02:10:05;;;;;;;10.30;8.65;;;;;;;;;;5097750;28;20110;-77
2022/07/26 02:12:31;;;;;;;13.23;9.60;;;;;;;;;;5089784;28;20071;-78
2022/07/26 02:14:58;;;;;;;11.93;8.85;;;;;;;;;;5077861;28;20029;-78
2022/07/26 02:17:24;;;;;;;12.35;9.00;;;;;;;;;;5079132;28;20414;-77
2022/07/26 02:19:51;;;;;;;12.38;9.15;;;;;;;;;;5077755;28;20410;-78
2022/07/26 02:22:18;;;;;;;11.05;9.50;;;;;;;;;;5078879;28;20410;-77
2022/07/26 02:24:44;;;;;;;11.63;9.82;;;;;;;;;;5096667;28;20032;-77
2022/07/26 02:27:11;;;;;;;23.67;10.18;;;;;;;;;;5078217;28;20052;-78
2022/07/26 02:29:37;;;;;;;14.02;9.52;;;;;;;;;;5077789;28;20318;-78
2022/07/26 02:32:03;;;;;;;12.93;9.20;;;;;;;;;;5082877;28;20028;-77
2022/07/26 02:34:29;;;;;;;13.85;9.80;;;;;;;;;;5096625;28;20028;-77
2022/07/26 02:36:55;;;;;;;12.48;10.30;;;;;;;;;;5097591;28;20114;-78
2022/07/26 02:39:26;;;;;;;12.73;10.18;;;;;;;;;;5097571;28;20032;-78
2022/07/26 02:42:02;;;;;;;12.98;9.73;;;;;;;;;;5097492;28;20028;-77
2022/07/26 02:44:29;;;;;;;12.40;10.32;;;;;;;;;;5097744;28;20031;-77
2022/07/26 02:46:55;;;;;;;12.63;9.82;;;;;;;;;;5096353;28;20111;-78
2022/07/26 02:49:21;;;;;;;12.32;10.63;;;;;;;;;;5097038;28;20034;-78
2022/07/26 02:51:48;;;;;;;13.50;11.15;;;;;;;;;;5093369;28;20051;-78
2022/07/26 02:54:14;;;;;;;12.90;10.80;;;;;;;;;;5077056;28;20306;-78
2022/07/26 02:56:40;;;;;;;14.10;10.80;;;;;;;;;;5088306;28;20060;-77
2022/07/26 02:59:07;;;;;;;14.73;11.00;;;;;;;;;;5091033;28;20037;-77
2022/07/26 03:01:38;;;;;;;16.27;10.73;;;;;;;;;;5077105;28;20016;-77
2022/07/26 03:04:06;;;;;;;18.67;13.00;;;;;;;;;;5078351;28;20031;-77
2022/07/26 03:06:32;;;;;;;18.10;11.68;;;;;;;;;;5077148;28;20043;-77
2022/07/26 03:08:59;;;;;;;15.55;11.70;;;;;;;;;;5078395;28;20020;-77
2022/07/26 03:11:25;;;;;;;21.05;13.60;;;;;;;;;;5078216;28;20027;-78
2022/07/26 03:13:51;;;;;;;19.05;14.45;;;;;;;;;;5078414;28;20024;-77
2022/07/26 03:16:17;;;;;;;20.20;14.05;;;;;;;;;;5095703;28;20025;-77
2022/07/26 03:18:43;;;;;;;18.75;13.23;;;;;;;;;;5095321;28;20099;-77
2022/07/26 03:21:09;;;;;;;24.90;14.00;;;;;;;;;;5088439;28;20025;-78
2022/07/26 03:23:36;;;;;;;21.05;13.90;;;;;;;;;;5076959;28;20020;-77
2022/07/26 03:26:02;;;;;;;18.15;12.85;;;;;;;;;;5081900;28;20031;-77
2022/07/26 03:28:30;;;;;;;19.65;12.80;;;;;;;;;;5092049;28;20029;-77
2022/07/26 03:30:56;;;;;;;21.65;13.75;;;;;;;;;;5076981;28;20059;-77
2022/07/26 03:33:22;;;;;;;19.13;14.10;;;;;;;;;;5076551;28;20036;-77
2022/07/26 03:35:48;;;;;;;21.80;13.68;;;;;;;;;;5075680;28;20095;-78
2022/07/26 03:38:14;;;;;;;17.35;13.55;;;;;;;;;;5077940;28;20036;-77
2022/07/26 03:40:40;;;;;;;20.08;14.02;;;;;;;;;;5081082;28;20055;-77
2022/07/26 03:43:06;;;;;;;22.08;14.23;;;;;;;;;;5077247;28;20033;-78
2022/07/26 03:45:32;;;;;;;20.33;13.40;;;;;;;;;;5094631;28;20314;-77
2022/07/26 03:47:58;;;;;;;19.73;13.98;;;;;;;;;;5097202;28;20049;-78
2022/07/26 03:50:24;;;;;;;23.70;13.68;;;;;;;;;;5095128;28;20058;-77
2022/07/26 03:52:50;;;;;;;21.75;14.40;;;;;;;;;;5096947;28;20016;-77
2022/07/26 03:58:01;;;;;;;19.95;13.50;;;;;;;;;;5095403;28;20039;-77
2022/07/26 04:00:27;;;;;;;17.90;13.65;;;;;;;;;;5094658;28;20024;-78
2022/07/26 04:02:53;;;;;;;20.88;14.27;;;;;;;;;;5096858;28;20020;-77
2022/07/26 04:05:19;;;;;;;24.83;14.50;;;;;;;;;;5096686;28;20035;-78
2022/07/26 04:07:45;;;;;;;20.23;14.70;;;;;;;;;;5096772;28;20024;-77
2022/07/26 04:10:12;;;;;;;18.88;14.80;;;;;;;;;;5096914;28;20101;-78
2022/07/26 04:12:38;;;;;;;20.80;15.50;;;;;;;;;;5096622;28;20020;-78
2022/07/26 04:15:05;;;;;;;24.05;16.02;;;;;;;;;;5079445;28;20033;-77
2022/07/26 04:17:40;;;;;;;32.50;16.98;;;;;;;;;;5078802;28;20032;-77
2022/07/26 04:20:07;;;;;;;21.27;16.83;;;;;;;;;;5096467;28;20032;-78
2022/07/26 04:22:36;;;;;;;25.17;16.58;;;;;;;;;;5096687;28;20055;-78
2022/07/26 04:25:03;;;;;;;28.50;17.38;;;;;;;;;;5095782;28;20322;-78
2022/07/26 04:27:29;;;;;;;26.23;16.60;;;;;;;;;;5095267;28;20044;-78
2022/07/26 04:29:55;;;;;;;28.08;16.35;;;;;;;;;;5094643;28;20032;-77
2022/07/26 04:32:21;;;;;;;22.08;16.83;;;;;;;;;;5096534;28;20115;-78
2022/07/26 04:34:47;;;;;;;25.95;18.90;;;;;;;;;;5096212;28;20064;-77
2022/07/26 04:37:13;;;;;;;20.08;15.00;;;;;;;;;;5083180;28;20116;-77
2022/07/26 04:39:39;;;;;;;17.98;12.88;;;;;;;;;;5091434;28;20031;-77
2022/07/26 04:42:06;;;;;;;16.80;11.60;;;;;;;;;;5080827;28;20078;-77
2022/07/26 04:44:32;;;;;;;18.55;11.40;;;;;;;;;;5080169;28;20104;-77
2022/07/26 04:46:58;;;;;;;14.27;10.52;;;;;;;;;;5079969;28;20421;-77
2022/07/26 04:49:24;;;;;;;18.42;10.07;;;;;;;;;;5079033;28;20848;-77
2022/07/26 04:51:51;;;;;;;12.10;10.73;;;;;;;;;;5080813;28;20033;-77
2022/07/26 04:54:19;;;;;;;18.75;10.77;;;;;;;;;;5119572;28;20054;-77
2022/07/26 04:56:46;;;;;;;15.82;11.25;;;;;;;;;;5118031;27;20028;-77
2022/07/26 04:59:12;;;;;;;14.25;11.40;;;;;;;;;;5099909;28;20036;-77
2022/07/26 05:01:38;;;;;;;15.73;11.18;;;;;;;;;;5099561;28;20329;-77
2022/07/26 05:04:04;;;;;;;12.15;10.85;;;;;;;;;;5097883;28;20052;-77
2022/07/26 05:06:33;;;;;;;12.75;10.95;;;;;;;;;;5100022;28;20031;-77
2022/07/26 05:08:59;;;;;;;13.20;10.52;;;;;;;;;;5099678;28;20337;-77
2022/07/26 05:11:25;;;;;;;13.73;10.18;;;;;;;;;;5098884;28;20028;-77
2022/07/26 05:13:51;;;;;;;15.52;10.82;;;;;;;;;;5090129;28;20119;-77
2022/07/26 05:16:17;;;;;;;13.13;10.07;;;;;;;;;;5097013;28;20040;-78
2022/07/26 05:18:43;;;;;;;20.67;10.60;;;;;;;;;;5094965;28;20048;-76
2022/07/26 05:21:09;;;;;;;11.82;10.20;;;;;;;;;;5079104;28;20096;-80
2022/07/26 05:23:35;;;;;;;13.35;10.32;;;;;;;;;;5085192;28;20033;-80
2022/07/26 05:26:01;;;;;;;22.75;11.02;;;;;;;;;;5119682;28;20024;-80
2022/07/26 05:28:27;;;;;;;14.35;11.50;;;;;;;;;;5119609;28;20027;-80
2022/07/26 05:30:54;;;;;;;17.35;10.63;;;;;;;;;;5119715;28;20312;-80
2022/07/26 05:33:20;;;;;;;15.95;10.77;;;;;;;;;;5119605;28;20043;-80
2022/07/26 05:35:46;;;;;;;12.63;11.32;;;;;;;;;;5119497;28;20028;-80
2022/07/26 05:38:12;;;;;;;12.20;10.30;;;;;;;;;;5119715;28;20110;-80
2022/07/26 05:40:38;;;;;;;11.20;9.50;;;;;;;;;;5119616;28;20046;-80
2022/07/26 05:43:04;;;;;;;13.77;9.50;;;;;;;;;;5119623;28;20062;-80
2022/07/26 05:45:30;;;;;;;17.63;10.77;;;;;;;;;;5119591;28;20020;-80
2022/07/26 05:47:56;;;;;;;17.00;14.20;;;;;;;;;;5117905;28;20019;-80
2022/07/26 05:50:22;;;;;;;18.80;13.77;;;;;;;;;;5119223;28;20035;-80
2022/07/26 05:52:48;;;;;;;18.98;12.35;;;;;;;;;;5119448;28;20024;-80
2022/07/26 05:55:14;;;;;;;17.92;13.70;;;;;;;;;;5119444;28;20106;-79
2022/07/26 05:57:40;;;;;;;17.45;14.02;;;;;;;;;;5119210;28;20103;-80
2022/07/26 06:00:08;;;;;;;16.35;12.70;;;;;;;;;;5119073;28;20039;-80
2022/07/26 06:02:36;;;;;;;14.88;11.63;;;;;;;;;;5119123;28;20031;-80
2022/07/26 06:05:02;;;;;;;14.50;11.00;;;;;;;;;;5118970;28;20015;-79
2022/07/26 06:07:28;;;;;;;18.25;12.77;;;;;;;;;;5119535;28;20028;-80
2022/07/26 06:09:54;;;;;;;22.02;13.18;;;;;;;;;;5119192;28;20061;-80
2022/07/26 06:12:20;;;;;;;20.48;14.13;;;;;;;;;;5118120;27;20036;-80
2022/07/26 06:14:46;;;;;;;19.98;13.35;;;;;;;;;;5118960;28;20058;-80
2022/07/26 06:17:12;;;;;;;14.70;10.75;;;;;;;;;;5118970;28;20043;-80
2022/07/26 06:19:38;;;;;;;14.43;12.23;;;;;;;;;;5118671;28;20050;-80
2022/07/26 06:22:04;;;;;;;13.15;10.95;;;;;;;;;;5118539;28;20401;-80
2022/07/26 06:24:31;;;;;;;29.08;22.10;;;;;;;;;;5117756;27;20036;-80
2022/07/26 06:26:57;;;;;;;21.00;17.05;;;;;;;;;;5118134;28;20052;-80
2022/07/26 06:29:23;;;;;;;16.52;14.32;;;;;;;;;;5118677;28;20028;-80
2022/07/26 06:31:49;;;;;;;15.98;12.15;;;;;;;;;;5118437;28;20028;-80
2022/07/26 06:34:17;;;;;;;14.40;11.40;;;;;;;;;;5118412;28;20050;-80
2022/07/26 06:36:43;;;;;;;28.15;20.58;;;;;;;;;;5118300;28;20375;-80
2022/07/26 06:39:09;;;;;;;19.42;14.18;;;;;;;;;;5118465;28;20024;-80
2022/07/26 06:41:35;;;;;;;31.45;20.35;;;;;;;;;;5118476;28;20043;-81
2022/07/26 06:44:02;;;;;;;25.25;20.90;;;;;;;;;;5118401;28;20042;-80
2022/07/26 06:46:28;;;;;;;18.98;15.43;;;;;;;;;;5118426;28;20032;-80
2022/07/26 06:48:54;;;;;;;17.75;13.13;;;;;;;;;;5118383;28;20016;-80
2022/07/26 06:51:21;;;;;;;16.80;12.43;;;;;;;;;;5118056;28;20024;-80
2022/07/26 06:53:47;;;;;;;16.80;13.43;;;;;;;;;;5118306;28;20111;-80
2022/07/26 06:56:14;;;;;;;11.48;10.02;;;;;;;;;;5118131;28;20031;-80
2022/07/26 06:58:41;;;;;;;16.42;12.38;;;;;;;;;;5117190;27;20040;-80
2022/07/26 07:01:07;;;;;;;14.07;10.77;;;;;;;;;;5117607;28;20302;-80
2022/07/26 07:03:33;;;;;;;11.27;8.65;;;;;;;;;;5117963;28;20019;-80
2022/07/26 07:05:59;;;;;;;10.80;8.40;;;;;;;;;;5117813;27;20028;-83
2022/07/26 07:08:25;;;;;;;11.73;8.02;;;;;;;;;;5117913;28;20309;-82
2022/07/26 07:10:51;;;;;;;14.52;8.05;;;;;;;;;;5116919;28;20027;-82
2022/07/26 07:13:18;;;;;;;14.38;7.82;;;;;;;;;;5117943;28;20076;-82
2022/07/26 07:15:44;;;;;;;14.73;7.78;;;;;;;;;;5117066;27;20031;-81
2022/07/26 07:18:10;;;;;;;14.35;9.15;;;;;;;;;;5098021;28;20068;-81
2022/07/26 07:20:37;;;;;;;17.45;8.40;;;;;;;;;;5096922;28;20023;-81
2022/07/26 07:23:03;;;;;;;12.73;8.73;;;;;;;;;;5094657;28;20463;-81
2022/07/26 07:25:29;;;;;;;16.25;9.60;;;;;;;;;;5095844;28;20020;-81
2022/07/26 07:27:55;;;;;;;13.85;10.00;;;;;;;;;;5097156;28;20060;-82
2022/07/26 07:30:23;;;;;;;13.55;8.07;;;;;;;;;;5097291;28;20051;-82
2022/07/26 07:32:51;;;;;;;11.38;7.75;;;;;;;;;;5096463;28;20059;-82
2022/07/26 07:35:17;;;;;;;11.68;7.88;;;;;;;;;;5097292;28;20398;-82
2022/07/26 07:37:44;;;;;;;9.30;6.93;;;;;;;;;;5097162;28;20032;-82
2022/07/26 07:40:10;;;;;;;7.75;6.95;;;;;;;;;;5097361;28;20042;-82
2022/07/26 07:42:36;;;;;;;10.77;7.47;;;;;;;;;;5096627;28;20303;-82
2022/07/26 07:45:03;;;;;;;12.27;6.82;;;;;;;;;;5097161;28;20032;-82
2022/07/26 07:47:29;;;;;;;8.65;7.28;;;;;;;;;;5097092;28;20047;-82
2022/07/26 07:49:55;;;;;;;9.15;6.78;;;;;;;;;;5097015;28;20027;-82
2022/07/26 07:52:21;;;;;;;8.68;6.55;;;;;;;;;;5097094;28;20360;-82
2022/07/26 07:54:47;;;;;;;7.28;6.68;;;;;;;;;;5096946;28;20032;-82
2022/07/26 07:57:13;;;;;;;8.30;6.32;;;;;;;;;;5096092;28;20036;-82
2022/07/26 07:59:39;;;;;;;11.40;6.68;;;;;;;;;;5096949;28;20073;-82
2022/07/26 08:02:05;;;;;;;8.00;5.80;;;;;;;;;;5095740;28;20107;-81
2022/07/26 08:04:31;;;;;;;7.82;6.15;;;;;;;;;;5096902;28;20025;-82
2022/07/26 08:06:57;;;;;;;9.95;5.63;;;;;;;;;;5096803;28;20027;-82
2022/07/26 08:09:23;;;;;;;12.25;5.90;;;;;;;;;;5096549;28;20020;-81
2022/07/26 08:11:49;;;;;;;7.78;5.13;;;;;;;;;;5098632;28;20032;-82
2022/07/26 08:14:15;;;;;;;10.82;5.60;;;;;;;;;;5100083;28;20040;-82
2022/07/26 08:16:43;;;;;;;7.78;5.50;;;;;;;;;;5100887;28;20034;-82
2022/07/26 08:19:09;;;;;;;9.80;5.50;;;;;;;;;;5100472;28;20022;-82
2022/07/26 08:21:35;;;;;;;6.70;5.30;;;;;;;;;;5100707;28;20048;-81
2022/07/26 08:24:01;;;;;;;8.35;5.43;;;;;;;;;;5100522;28;20031;-82
2022/07/26 08:26:28;;;;;;;7.55;6.22;;;;;;;;;;5100214;28;20040;-82
2022/07/26 08:28:54;;;;;;;9.77;5.82;;;;;;;;;;5099588;28;20028;-82
2022/07/26 08:31:20;;;;;;;7.32;6.20;;;;;;;;;;5100387;28;20016;-82
2022/07/26 08:33:46;;;;;;;8.00;5.70;;;;;;;;;;5099333;28;20088;-82
2022/07/26 08:36:13;;;;;;;6.63;5.50;;;;;;;;;;5100182;28;20028;-82
2022/07/26 08:38:40;;;;;;;7.35;5.72;;;;;;;;;;5100522;28;20322;-82
2022/07/26 08:41:06;;;;;;;7.93;5.75;;;;;;;;;;5100194;28;20020;-82
2022/07/26 08:43:32;;;;;;;8.35;6.57;;;;;;;;;;5100326;28;20154;-82
2022/07/26 08:46:02;;;;;;;9.10;6.40;;;;;;;;;;5100121;28;20020;-82
2022/07/26 08:48:28;;;;;;;8.02;6.70;;;;;;;;;;5100208;28;20020;-82
2022/07/26 08:50:55;;;;;;;8.18;6.50;;;;;;;;;;5099950;28;20453;-82
2022/07/26 08:53:21;;;;;;;7.00;6.30;;;;;;;;;;5106961;28;20034;-81
2022/07/26 08:55:47;;;;;;;7.55;6.57;;;;;;;;;;5112332;28;20019;-81
2022/07/26 08:58:13;;;;;;;7.72;6.45;;;;;;;;;;5119978;28;20023;-81
2022/07/26 09:00:42;;;;;;;7.43;6.40;;;;;;;;;;5120178;28;20119;-81
2022/07/26 09:03:23;;;;;;;7.53;6.32;;;;;;;;;;5120090;27;20032;-81
2022/07/26 09:05:49;;;;;;;6.22;5.55;;;;;;;;;;5120575;28;20131;-81
2022/07/26 09:08:26;;;;;;;8.13;5.90;;;;;;;;;;5120174;27;20042;-81
2022/07/26 09:10:52;;;;;;;9.18;5.82;;;;;;;;;;5120065;28;20354;-81
2022/07/26 09:13:19;;;;;;;6.45;5.80;;;;;;;;;;5119912;28;20047;-81
2022/07/26 09:15:45;;;;;;;7.65;5.80;;;;;;;;;;5119555;28;20028;-81
2022/07/26 09:18:24;;;;;;;6.75;5.97;;;;;;;;;;5119619;28;20020;-82
2022/07/26 09:20:50;;;;;;;10.30;5.45;;;;;;;;;;5119816;28;20023;-81
2022/07/26 09:23:16;;;;;;;8.70;5.78;;;;;;;;;;5119250;28;20352;-81
2022/07/26 09:25:44;;;;;;;7.68;5.75;;;;;;;;;;5119660;28;20161;-82
2022/07/26 09:28:24;;;;;;;7.97;6.22;;;;;;;;;;5119555;28;20043;-82
2022/07/26 09:30:54;;;;;;;6.47;5.88;;;;;;;;;;5118646;28;20024;-81
2022/07/26 09:33:20;;;;;;;10.17;6.70;;;;;;;;;;5118850;27;20351;-81
2022/07/26 09:35:59;;;;;;;9.15;6.55;;;;;;;;;;5119613;28;20058;-81
2022/07/26 09:38:25;;;;;;;7.38;6.28;;;;;;;;;;5119450;28;20098;-81
2022/07/26 09:40:54;;;;;;;7.70;6.75;;;;;;;;;;5119646;28;20042;-81
2022/07/26 09:43:20;;;;;;;9.18;6.57;;;;;;;;;;5119588;28;20065;-81
2022/07/26 09:46:01;;;;;;;7.60;6.32;;;;;;;;;;5119512;28;20551;-81
2022/07/26 09:48:28;;;;;;;9.77;6.10;;;;;;;;;;5119634;28;20031;-81
2022/07/26 09:50:54;;;;;;;9.18;6.30;;;;;;;;;;5119184;28;20023;-81
2022/07/26 09:53:21;;;;;;;12.25;6.47;;;;;;;;;;5119392;27;20019;-81
2022/07/26 09:55:47;;;;;;;6.80;6.10;;;;;;;;;;5119300;27;20020;-81
2022/07/26 09:58:14;;;;;;;7.35;6.63;;;;;;;;;;5119193;28;20026;-81
2022/07/26 10:00:41;;;;;;;7.32;6.25;;;;;;;;;;5118996;28;20465;-81
2022/07/26 10:03:07;;;;;;;9.52;6.93;;;;;;;;;;5119043;28;20390;-80
2022/07/26 10:05:33;;;;;;;9.52;7.05;;;;;;;;;;5119116;28;20290;-81
2022/07/26 10:08:00;;;;;;;7.57;6.00;;;;;;;;;;5118886;28;20497;-81
2022/07/26 10:10:26;;;;;;;6.25;5.65;;;;;;;;;;5118878;28;20227;-81
2022/07/26 10:12:52;;;;;;;6.18;5.53;;;;;;;;;;5118845;28;20128;-81
2022/07/26 10:15:34;;;;;;;6.93;6.22;;;;;;;;;;5117743;28;20035;-80
2022/07/26 10:18:01;;;;;;;9.32;5.97;;;;;;;;;;5118066;27;20036;-81
2022/07/26 10:20:45;;;;;;;16.17;6.05;;;;;;;;;;5118548;28;20050;-81
2022/07/26 10:23:30;;;;;;;6.93;6.22;;;;;;;;;;5118759;28;20052;-81
2022/07/26 10:25:56;;;;;;;8.43;6.18;;;;;;;;;;5118490;28;20020;-80
2022/07/26 10:28:23;;;;;;;8.32;5.88;;;;;;;;;;5118715;28;20329;-81
2022/07/26 10:30:49;;;;;;;7.47;5.93;;;;;;;;;;5118520;27;20098;-81
2022/07/26 10:33:16;;;;;;;10.32;8.05;;;;;;;;;;5118532;28;20012;-81
2022/07/26 10:35:43;;;;;;;6.80;6.10;;;;;;;;;;5117452;28;20077;-81
2022/07/26 10:38:11;;;;;;;9.10;7.28;;;;;;;;;;5118384;28;20409;-81
2022/07/26 10:40:41;;;;;;;7.03;6.13;;;;;;;;;;5118516;28;20023;-81
2022/07/26 10:43:11;;;;;;;7.50;6.70;;;;;;;;;;5118352;28;20429;-86
2022/07/26 10:45:38;;;;;;;7.28;6.10;;;;;;;;;;5118578;28;20469;-82
2022/07/26 10:48:23;;;;;;;7.10;5.80;;;;;;;;;;5118316;28;20019;-81
2022/07/26 10:50:51;;;;;;;6.43;5.75;;;;;;;;;;5118065;28;20287;-82
2022/07/26 10:53:18;;;;;;;6.45;5.85;;;;;;;;;;5118074;28;20114;-82
2022/07/26 10:55:48;;;;;;;7.75;5.78;;;;;;;;;;5117064;28;20039;-82
2022/07/26 10:58:15;;;;;;;7.03;6.03;;;;;;;;;;5118148;28;20073;-82
2022/07/26 11:00:57;;;;;;;10.50;6.05;;;;;;;;;;5117910;28;20030;-82
2022/07/26 11:03:23;;;;;;;6.70;6.07;;;;;;;;;;5118118;28;20034;-82
2022/07/26 11:05:50;;;;;;;6.28;5.60;;;;;;;;;;5117945;28;20026;-82
2022/07/26 11:08:16;;;;;;;6.63;5.93;;;;;;;;;;5117876;28;20094;-82
2022/07/26 11:10:43;;;;;;;7.82;5.57;;;;;;;;;;5117167;28;20031;-82
2022/07/26 11:13:17;;;;;;;9.13;5.72;;;;;;;;;;5117114;27;20032;-82
2022/07/26 11:15:45;;;;;;;6.30;5.70;;;;;;;;;;5117846;28;20028;-82
2022/07/26 11:18:12;;;;;;;10.13;6.00;;;;;;;;;;5117937;28;20024;-82
2022/07/26 11:20:39;;;;;;;8.52;6.10;;;;;;;;;;5117738;28;20028;-82
2022/07/26 11:23:18;;;;;;;9.43;6.15;;;;;;;;;;5117537;28;20099;-82
2022/07/26 11:25:58;;;;;;;8.68;5.93;;;;;;;;;;5117742;28;20027;-82
2022/07/26 11:28:24;;;;;;;9.50;5.80;;;;;;;;;;5117638;28;20039;-82
2022/07/26 11:30:59;;;;;;;6.30;5.70;;;;;;;;;;5117809;28;20050;-82
2022/07/26 11:33:43;;;;;;;9.00;6.18;;;;;;;;;;5117710;28;20107;-82
2022/07/26 11:36:10;;;;;;;7.13;5.20;;;;;;;;;;5117435;28;20444;-82
2022/07/26 11:38:55;;;;;;;7.47;6.20;;;;;;;;;;5117639;28;20020;-82
2022/07/26 11:41:22;;;;;;;8.13;6.45;;;;;;;;;;5117768;28;20023;-82
2022/07/26 11:43:49;;;;;;;6.95;5.82;;;;;;;;;;5117651;28;20317;-82
2022/07/26 11:46:15;;;;;;;6.85;6.25;;;;;;;;;;5119449;28;20383;-83
2022/07/26 11:48:52;;;;;;;6.05;5.50;;;;;;;;;;5102854;28;20012;-83
2022/07/26 11:51:33;;;;;;;9.45;5.90;;;;;;;;;;5080960;28;20036;-82
2022/07/26 11:54:02;;;;;;;7.35;5.85;;;;;;;;;;5081180;28;20021;-82
2022/07/26 11:56:30;;;;;;;7.85;6.43;;;;;;;;;;5084761;28;20426;-82
2022/07/26 11:58:56;;;;;;;6.60;5.45;;;;;;;;;;5097853;28;20055;-83
2022/07/26 12:01:23;;;;;;;8.93;5.97;;;;;;;;;;5101172;28;20024;-82
2022/07/26 12:03:50;;;;;;;9.05;6.43;;;;;;;;;;5092910;28;20027;-82
2022/07/26 12:06:18;;;;;;;7.32;5.85;;;;;;;;;;5080645;28;20095;-82
2022/07/26 12:08:45;;;;;;;6.70;5.80;;;;;;;;;;5079841;28;20162;-82
2022/07/26 12:11:12;;;;;;;7.65;6.00;;;;;;;;;;5080722;28;20021;-83
2022/07/26 12:13:48;;;;;;;6.28;5.57;;;;;;;;;;5080804;28;20028;-82
2022/07/26 12:16:32;;;;;;;7.60;6.28;;;;;;;;;;5089206;28;20444;-83
2022/07/26 12:18:58;;;;;;;6.32;5.72;;;;;;;;;;5080867;28;20036;-83
2022/07/26 12:21:37;;;;;;;7.35;6.05;;;;;;;;;;5080189;28;20303;-82
2022/07/26 12:24:03;;;;;;;7.68;6.18;;;;;;;;;;5080180;28;20028;-83
2022/07/26 12:26:29;;;;;;;9.40;6.68;;;;;;;;;;5079940;28;20067;-83
2022/07/26 12:28:56;;;;;;;6.85;5.47;;;;;;;;;;5080388;28;20373;-82
2022/07/26 12:31:23;;;;;;;6.82;5.90;;;;;;;;;;5080241;28;20020;-82
2022/07/26 12:33:49;;;;;;;9.23;6.07;;;;;;;;;;5080627;28;20077;-83
2022/07/26 12:36:23;;;;;;;7.30;5.57;;;;;;;;;;5079037;28;20028;-82
2022/07/26 12:38:51;;;;;;;7.13;5.72;;;;;;;;;;5080066;28;20024;-82
2022/07/26 12:41:35;;;;;;;5.90;5.30;;;;;;;;;;5089207;28;20135;-83
2022/07/26 12:44:02;;;;;;;7.85;5.85;;;;;;;;;;5080106;28;20032;-83
2022/07/26 12:46:31;;;;;;;8.05;6.57;;;;;;;;;;5080869;28;20061;-83
2022/07/26 12:48:57;;;;;;;7.03;6.20;;;;;;;;;;5080145;28;20043;-79
2022/07/26 12:51:23;;;;;;;6.68;5.97;;;;;;;;;;5083787;28;20306;-78
2022/07/26 12:53:49;;;;;;;11.52;6.72;;;;;;;;;;5098763;28;20040;-79
2022/07/26 12:56:15;;;;;;;6.35;5.40;;;;;;;;;;5099944;28;20028;-79
2022/07/26 12:58:41;;;;;;;7.15;5.47;;;;;;;;;;5098598;28;20322;-78
2022/07/26 13:01:07;;;;;;;8.65;5.60;;;;;;;;;;5099936;28;20307;-78
2022/07/26 13:03:33;;;;;;;6.63;5.40;;;;;;;;;;5099901;28;20420;-78
2022/07/26 13:05:59;;;;;;;6.18;5.53;;;;;;;;;;5099821;28;20156;-79
2022/07/26 13:08:25;;;;;;;7.78;5.53;;;;;;;;;;5099848;28;20044;-79
2022/07/26 13:10:51;;;;;;;6.40;5.50;;;;;;;;;;5099755;28;20024;-79
2022/07/26 13:13:17;;;;;;;10.18;5.75;;;;;;;;;;5099603;28;20020;-79
2022/07/26 13:15:43;;;;;;;9.73;5.18;;;;;;;;;;5099752;28;20111;-79
2022/07/26 13:18:09;;;;;;;6.93;5.90;;;;;;;;;;5099821;28;20047;-79
2022/07/26 13:20:37;;;;;;;7.00;5.65;;;;;;;;;;5099440;28;20071;-79
2022/07/26 13:23:03;;;;;;;7.80;5.25;;;;;;;;;;5098226;28;20394;-79
2022/07/26 13:25:29;;;;;;;9.20;5.35;;;;;;;;;;5098789;28;20431;-79
2022/07/26 13:27:56;;;;;;;6.80;5.93;;;;;;;;;;5098214;28;20051;-79
2022/07/26 13:30:22;;;;;;;5.90;5.38;;;;;;;;;;5099337;28;20027;-79
2022/07/26 13:32:48;;;;;;;9.98;6.20;;;;;;;;;;5099283;28;20024;-79
2022/07/26 13:35:14;;;;;;;9.63;5.57;;;;;;;;;;5091354;28;20029;-78
2022/07/26 13:37:40;;;;;;;6.97;6.28;;;;;;;;;;5078919;28;20106;-79
2022/07/26 13:40:06;;;;;;;6.10;5.50;;;;;;;;;;5077732;28;20034;-79
2022/07/26 13:42:32;;;;;;;7.25;5.40;;;;;;;;;;5078795;28;20314;-78
2022/07/26 13:44:58;;;;;;;6.25;5.65;;;;;;;;;;5079066;28;20052;-78
2022/07/26 13:47:24;;;;;;;9.45;5.97;;;;;;;;;;5078728;28;20402;-79
2022/07/26 13:49:50;;;;;;;7.07;5.60;;;;;;;;;;5082580;28;20043;-79
2022/07/26 13:52:17;;;;;;;7.88;5.97;;;;;;;;;;5088303;28;20035;-79
2022/07/26 13:54:43;;;;;;;6.90;5.78;;;;;;;;;;5096833;28;20065;-79
2022/07/26 13:57:09;;;;;;;7.45;5.53;;;;;;;;;;5097883;28;20040;-79
2022/07/26 13:59:35;;;;;;;6.15;5.60;;;;;;;;;;5098711;28;20399;-79
2022/07/26 14:02:03;;;;;;;7.15;5.00;;;;;;;;;;5098464;28;20065;-79
2022/07/26 14:04:29;;;;;;;6.28;4.97;;;;;;;;;;5092680;28;20159;-79
2022/07/26 14:06:55;;;;;;;7.55;5.22;;;;;;;;;;5081715;28;20044;-79
2022/07/26 14:09:21;;;;;;;6.93;5.20;;;;;;;;;;5078100;28;20021;-78
2022/07/26 14:11:47;;;;;;;10.45;5.68;;;;;;;;;;5088233;28;20147;-79
2022/07/26 14:14:13;;;;;;;6.28;5.68;;;;;;;;;;5079014;28;20029;-78
2022/07/26 14:16:40;;;;;;;7.68;5.72;;;;;;;;;;5077799;28;20292;-79
2022/07/26 14:19:06;;;;;;;8.75;5.47;;;;;;;;;;5078103;28;20021;-79
2022/07/26 14:21:33;;;;;;;7.40;5.95;;;;;;;;;;5078196;28;20034;-79
2022/07/26 14:23:59;;;;;;;7.05;5.78;;;;;;;;;;5077320;28;20032;-79
2022/07/26 14:26:26;;;;;;;8.15;5.40;;;;;;;;;;5077340;28;20024;-79
2022/07/26 14:28:52;;;;;;;7.82;5.07;;;;;;;;;;5083038;28;20034;-80
2022/07/26 14:31:18;;;;;;;7.30;5.50;;;;;;;;;;5098171;28;20020;-79
2022/07/26 14:33:44;;;;;;;7.57;5.30;;;;;;;;;;5098440;28;20043;-79